sensor_id;sensor_type;location;lat;lon;timestamp;P1;durP1;ratioP1;P2;durP2;ratioP2
12222;SDS011;6174;49.058;8.524;2022-12-16T05:03:21;10.73;;;8.77;;
12222;SDS011;6174;49.058;8.524;2022-12-16T05:06:05;12.90;;;8.50;;
12222;SDS011;6174;49.058;8.524;2022-12-16T05:08:49;13.10;;;9.20;;
12222;SDS011;6174;49.058;8.524;2022-12-16T05:11:33;10.37;;;7.87;;
12222;SDS011;6174;49.058;8.524;2022-12-16T05:14:20;11.20;;;9.17;;
12222;SDS011;6174;49.058;8.524;2022-12-16T05:17:05;10.40;;;8.13;;
12222;SDS011;6174;49.058;8.524;2022-12-16T05:19:49;11.83;;;9.20;;
12222;SDS011;6174;49.058;8.524;2022-12-16T05:22:33;11.97;;;9.33;;
12222;SDS011;6174;49.058;8.524;2022-12-16T05:25:17;11.70;;;9.10;;
12222;SDS011;6174;49.058;8.524;2022-12-16T05:28:02;12.13;;;8.70;;
12222;SDS011;6174;49.058;8.524;2022-12-16T05:30:46;12.33;;;9.40;;
12222;SDS011;6174;49.058;8.524;2022-12-16T05:33:31;11.80;;;8.97;;
12222;SDS011;6174;49.058;8.524;2022-12-16T05:36:16;12.23;;;9.50;;
12222;SDS011;6174;49.058;8.524;2022-12-16T05:38:56;10.53;;;8.90;;
12222;SDS011;6174;49.058;8.524;2022-12-16T05:41:40;13.50;;;9.37;;
12222;SDS011;6174;49.058;8.524;2022-12-16T05:44:24;10.73;;;8.93;;
12222;SDS011;6174;49.058;8.524;2022-12-16T05:47:08;12.23;;;8.93;;
12222;SDS011;6174;49.058;8.524;2022-12-16T05:49:54;10.90;;;8.57;;
12222;SDS011;6174;49.058;8.524;2022-12-16T05:52:38;11.67;;;9.47;;
12222;SDS011;6174;49.058;8.524;2022-12-16T05:55:23;11.07;;;9.00;;
12222;SDS011;6174;49.058;8.524;2022-12-16T05:58:07;12.67;;;8.57;;
12222;SDS011;6174;49.058;8.524;2022-12-16T06:00:51;12.40;;;8.60;;
12222;SDS011;6174;49.058;8.524;2022-12-16T06:03:36;11.43;;;8.93;;
12222;SDS011;6174;49.058;8.524;2022-12-16T06:06:22;10.53;;;8.87;;
12222;SDS011;6174;49.058;8.524;2022-12-16T06:09:06;10.43;;;8.17;;
12222;SDS011;6174;49.058;8.524;2022-12-16T06:11:47;12.33;;;8.97;;
12222;SDS011;6174;49.058;8.524;2022-12-16T06:14:31;11.43;;;9.13;;
12222;SDS011;6174;49.058;8.524;2022-12-16T06:17:15;12.07;;;8.90;;
12222;SDS011;6174;49.058;8.524;2022-12-16T06:20:00;10.87;;;8.53;;
12222;SDS011;6174;49.058;8.524;2022-12-16T06:22:42;10.30;;;8.90;;
12222;SDS011;6174;49.058;8.524;2022-12-16T06:25:26;11.03;;;8.77;;
12222;SDS011;6174;49.058;8.524;2022-12-16T06:28:11;9.80;;;7.83;;
12222;SDS011;6174;49.058;8.524;2022-12-16T06:30:55;12.20;;;8.97;;
12222;SDS011;6174;49.058;8.524;2022-12-16T06:33:39;11.77;;;8.67;;
12222;SDS011;6174;49.058;8.524;2022-12-16T06:36:23;12.57;;;9.47;;
12222;SDS011;6174;49.058;8.524;2022-12-16T06:39:08;12.20;;;8.77;;
12222;SDS011;6174;49.058;8.524;2022-12-16T06:41:52;11.97;;;8.77;;
12222;SDS011;6174;49.058;8.524;2022-12-16T06:44:37;13.57;;;8.70;;
12222;SDS011;6174;49.058;8.524;2022-12-16T06:47:21;13.23;;;9.37;;
12222;SDS011;6174;49.058;8.524;2022-12-16T06:50:05;12.33;;;9.40;;
12222;SDS011;6174;49.058;8.524;2022-12-16T06:52:50;10.87;;;9.43;;
12222;SDS011;6174;49.058;8.524;2022-12-16T06:55:35;12.10;;;8.90;;
12222;SDS011;6174;49.058;8.524;2022-12-16T06:58:19;15.47;;;11.07;;
12222;SDS011;6174;49.058;8.524;2022-12-16T07:01:03;13.93;;;10.43;;
12222;SDS011;6174;49.058;8.524;2022-12-16T07:03:47;13.03;;;9.93;;
12222;SDS011;6174;49.058;8.524;2022-12-16T07:06:32;14.97;;;10.83;;
12222;SDS011;6174;49.058;8.524;2022-12-16T07:09:16;11.77;;;9.50;;
12222;SDS011;6174;49.058;8.524;2022-12-16T07:12:01;12.27;;;9.57;;
12222;SDS011;6174;49.058;8.524;2022-12-16T07:14:46;11.47;;;9.17;;
12222;SDS011;6174;49.058;8.524;2022-12-16T07:17:30;11.67;;;8.73;;
12222;SDS011;6174;49.058;8.524;2022-12-16T07:20:14;12.20;;;9.47;;
12222;SDS011;6174;49.058;8.524;2022-12-16T07:22:58;13.43;;;9.40;;
12222;SDS011;6174;49.058;8.524;2022-12-16T07:25:42;12.30;;;9.10;;
12222;SDS011;6174;49.058;8.524;2022-12-16T07:28:28;11.47;;;8.90;;
12222;SDS011;6174;49.058;8.524;2022-12-16T07:31:12;11.47;;;8.30;;
12222;SDS011;6174;49.058;8.524;2022-12-16T07:33:56;11.30;;;9.00;;
12222;SDS011;6174;49.058;8.524;2022-12-16T07:36:40;11.03;;;8.40;;
12222;SDS011;6174;49.058;8.524;2022-12-16T07:39:24;12.03;;;9.43;;
12222;SDS011;6174;49.058;8.524;2022-12-16T07:42:08;12.27;;;9.30;;
12222;SDS011;6174;49.058;8.524;2022-12-16T07:44:54;9.50;;;7.93;;
12222;SDS011;6174;49.058;8.524;2022-12-16T07:47:45;11.77;;;8.70;;
12222;SDS011;6174;49.058;8.524;2022-12-16T07:50:30;12.07;;;9.70;;
12222;SDS011;6174;49.058;8.524;2022-12-16T07:53:14;14.13;;;10.97;;
12222;SDS011;6174;49.058;8.524;2022-12-16T07:55:58;12.37;;;10.00;;
12222;SDS011;6174;49.058;8.524;2022-12-16T07:58:42;13.40;;;9.77;;
12222;SDS011;6174;49.058;8.524;2022-12-16T08:01:27;13.17;;;10.10;;
12222;SDS011;6174;49.058;8.524;2022-12-16T08:04:12;24.40;;;18.23;;
12222;SDS011;6174;49.058;8.524;2022-12-16T08:06:56;27.10;;;19.40;;
12222;SDS011;6174;49.058;8.524;2022-12-16T08:09:40;27.27;;;18.33;;
12222;SDS011;6174;49.058;8.524;2022-12-16T08:12:24;22.47;;;17.53;;
12222;SDS011;6174;49.058;8.524;2022-12-16T08:15:08;17.00;;;13.53;;
12222;SDS011;6174;49.058;8.524;2022-12-16T08:17:54;16.33;;;13.00;;
12222;SDS011;6174;49.058;8.524;2022-12-16T08:20:38;14.27;;;11.17;;
12222;SDS011;6174;49.058;8.524;2022-12-16T08:23:25;13.17;;;11.03;;
12222;SDS011;6174;49.058;8.524;2022-12-16T08:26:09;11.60;;;9.43;;
12222;SDS011;6174;49.058;8.524;2022-12-16T08:28:54;12.70;;;9.90;;
12222;SDS011;6174;49.058;8.524;2022-12-16T08:31:38;13.30;;;10.27;;
12222;SDS011;6174;49.058;8.524;2022-12-16T08:34:24;12.77;;;10.27;;
12222;SDS011;6174;49.058;8.524;2022-12-16T08:37:08;13.57;;;10.17;;
12222;SDS011;6174;49.058;8.524;2022-12-16T08:39:52;12.83;;;10.10;;
12222;SDS011;6174;49.058;8.524;2022-12-16T08:42:36;13.63;;;10.57;;
12222;SDS011;6174;49.058;8.524;2022-12-16T08:45:21;14.23;;;11.90;;
12222;SDS011;6174;49.058;8.524;2022-12-16T08:48:05;15.47;;;11.57;;
12222;SDS011;6174;49.058;8.524;2022-12-16T08:50:51;11.90;;;9.93;;
12222;SDS011;6174;49.058;8.524;2022-12-16T08:53:35;13.00;;;9.87;;
12222;SDS011;6174;49.058;8.524;2022-12-16T08:56:19;12.40;;;10.17;;
12222;SDS011;6174;49.058;8.524;2022-12-16T08:59:04;13.03;;;9.43;;
12222;SDS011;6174;49.058;8.524;2022-12-16T09:01:48;14.00;;;10.57;;
12222;SDS011;6174;49.058;8.524;2022-12-16T09:04:32;14.37;;;10.73;;
12222;SDS011;6174;49.058;8.524;2022-12-16T09:07:18;14.80;;;11.10;;
12222;SDS011;6174;49.058;8.524;2022-12-16T09:10:03;14.77;;;11.57;;
12222;SDS011;6174;49.058;8.524;2022-12-16T09:12:48;14.93;;;12.10;;
12222;SDS011;6174;49.058;8.524;2022-12-16T09:15:32;14.43;;;12.00;;
12222;SDS011;6174;49.058;8.524;2022-12-16T09:18:16;15.30;;;11.53;;
12222;SDS011;6174;49.058;8.524;2022-12-16T09:21:00;14.57;;;11.50;;
12222;SDS011;6174;49.058;8.524;2022-12-16T09:23:46;17.77;;;14.40;;
12222;SDS011;6174;49.058;8.524;2022-12-16T09:26:30;15.37;;;11.77;;
12222;SDS011;6174;49.058;8.524;2022-12-16T09:29:14;19.90;;;14.23;;
12222;SDS011;6174;49.058;8.524;2022-12-16T09:31:59;12.43;;;10.57;;
12222;SDS011;6174;49.058;8.524;2022-12-16T09:34:43;12.97;;;10.27;;
12222;SDS011;6174;49.058;8.524;2022-12-16T09:37:27;13.40;;;11.13;;
12222;SDS011;6174;49.058;8.524;2022-12-16T09:40:13;11.53;;;10.27;;
12222;SDS011;6174;49.058;8.524;2022-12-16T09:43:00;11.07;;;9.60;;
12222;SDS011;6174;49.058;8.524;2022-12-16T09:45:51;11.23;;;9.27;;
12222;SDS011;6174;49.058;8.524;2022-12-16T09:48:46;11.20;;;9.67;;
12222;SDS011;6174;49.058;8.524;2022-12-16T09:51:36;12.50;;;9.80;;
12222;SDS011;6174;49.058;8.524;2022-12-16T09:54:22;12.60;;;10.17;;
12222;SDS011;6174;49.058;8.524;2022-12-16T09:57:13;12.20;;;9.87;;
12222;SDS011;6174;49.058;8.524;2022-12-16T10:00:00;13.27;;;9.83;;
12222;SDS011;6174;49.058;8.524;2022-12-16T10:02:48;12.17;;;9.93;;
12222;SDS011;6174;49.058;8.524;2022-12-16T10:05:34;12.03;;;10.00;;
12222;SDS011;6174;49.058;8.524;2022-12-16T10:08:28;11.40;;;9.50;;
12222;SDS011;6174;49.058;8.524;2022-12-16T10:11:20;12.10;;;9.93;;
12222;SDS011;6174;49.058;8.524;2022-12-16T10:14:19;11.47;;;9.87;;
12222;SDS011;6174;49.058;8.524;2022-12-16T10:17:14;10.70;;;9.40;;
12222;SDS011;6174;49.058;8.524;2022-12-16T10:20:06;11.50;;;9.70;;
12222;SDS011;6174;49.058;8.524;2022-12-16T10:23:01;11.53;;;9.73;;
12222;SDS011;6174;49.058;8.524;2022-12-16T10:25:54;12.30;;;9.97;;
12222;SDS011;6174;49.058;8.524;2022-12-16T10:28:43;11.63;;;10.13;;
12222;SDS011;6174;49.058;8.524;2022-12-16T10:31:30;13.67;;;10.47;;
12222;SDS011;6174;49.058;8.524;2022-12-16T10:34:17;13.63;;;10.70;;
12222;SDS011;6174;49.058;8.524;2022-12-16T10:37:03;12.83;;;10.77;;
12222;SDS011;6174;49.058;8.524;2022-12-16T10:39:48;14.07;;;10.10;;
12222;SDS011;6174;49.058;8.524;2022-12-16T10:42:38;10.87;;;9.03;;
12222;SDS011;6174;49.058;8.524;2022-12-16T10:45:37;10.93;;;9.83;;
12222;SDS011;6174;49.058;8.524;2022-12-16T10:48:26;11.30;;;9.50;;
12222;SDS011;6174;49.058;8.524;2022-12-16T10:51:13;13.10;;;9.53;;
12222;SDS011;6174;49.058;8.524;2022-12-16T10:54:00;10.70;;;8.70;;
12222;SDS011;6174;49.058;8.524;2022-12-16T10:57:04;13.13;;;8.90;;
12222;SDS011;6174;49.058;8.524;2022-12-16T10:59:53;14.60;;;9.03;;
12222;SDS011;6174;49.058;8.524;2022-12-16T11:02:51;10.13;;;8.53;;
12222;SDS011;6174;49.058;8.524;2022-12-16T11:05:37;12.53;;;8.97;;
12222;SDS011;6174;49.058;8.524;2022-12-16T11:08:22;10.53;;;9.03;;
12222;SDS011;6174;49.058;8.524;2022-12-16T11:11:11;10.40;;;7.43;;
12222;SDS011;6174;49.058;8.524;2022-12-16T11:14:07;11.57;;;9.07;;
12222;SDS011;6174;49.058;8.524;2022-12-16T11:17:09;11.97;;;8.90;;
12222;SDS011;6174;49.058;8.524;2022-12-16T11:20:07;11.00;;;7.90;;
12222;SDS011;6174;49.058;8.524;2022-12-16T11:23:07;10.47;;;8.87;;
12222;SDS011;6174;49.058;8.524;2022-12-16T11:26:04;11.53;;;8.73;;
12222;SDS011;6174;49.058;8.524;2022-12-16T11:29:04;11.77;;;9.93;;
12222;SDS011;6174;49.058;8.524;2022-12-16T11:31:59;14.33;;;11.03;;
12222;SDS011;6174;49.058;8.524;2022-12-16T11:34:50;9.27;;;7.93;;
12222;SDS011;6174;49.058;8.524;2022-12-16T11:37:39;12.03;;;9.17;;
12222;SDS011;6174;49.058;8.524;2022-12-16T11:40:27;10.00;;;8.83;;
12222;SDS011;6174;49.058;8.524;2022-12-16T11:43:13;10.83;;;9.30;;
12222;SDS011;6174;49.058;8.524;2022-12-16T11:46:00;11.97;;;9.03;;
12222;SDS011;6174;49.058;8.524;2022-12-16T11:48:51;9.70;;;8.70;;
12222;SDS011;6174;49.058;8.524;2022-12-16T11:51:37;10.10;;;8.60;;
12222;SDS011;6174;49.058;8.524;2022-12-16T11:54:24;11.40;;;8.93;;
12222;SDS011;6174;49.058;8.524;2022-12-16T11:57:23;10.57;;;9.27;;
12222;SDS011;6174;49.058;8.524;2022-12-16T12:00:21;11.93;;;9.43;;
12222;SDS011;6174;49.058;8.524;2022-12-16T12:03:05;12.67;;;9.80;;
12222;SDS011;6174;49.058;8.524;2022-12-16T12:05:55;11.20;;;9.20;;
12222;SDS011;6174;49.058;8.524;2022-12-16T12:08:47;13.23;;;9.00;;
12222;SDS011;6174;49.058;8.524;2022-12-16T12:11:40;12.63;;;9.60;;
12222;SDS011;6174;49.058;8.524;2022-12-16T12:14:31;11.23;;;9.57;;
12222;SDS011;6174;49.058;8.524;2022-12-16T12:17:21;10.90;;;8.73;;
12222;SDS011;6174;49.058;8.524;2022-12-16T12:20:26;11.40;;;9.20;;
12222;SDS011;6174;49.058;8.524;2022-12-16T12:23:28;10.83;;;9.20;;
12222;SDS011;6174;49.058;8.524;2022-12-16T12:26:21;11.90;;;9.23;;
12222;SDS011;6174;49.058;8.524;2022-12-16T12:29:11;11.43;;;9.60;;
12222;SDS011;6174;49.058;8.524;2022-12-16T12:32:08;12.80;;;8.77;;
12222;SDS011;6174;49.058;8.524;2022-12-16T12:35:02;11.73;;;9.17;;
12222;SDS011;6174;49.058;8.524;2022-12-16T12:37:56;12.73;;;8.97;;
12222;SDS011;6174;49.058;8.524;2022-12-16T12:40:47;8.57;;;7.67;;
12222;SDS011;6174;49.058;8.524;2022-12-16T12:43:40;10.13;;;8.03;;
12222;SDS011;6174;49.058;8.524;2022-12-16T12:46:36;9.37;;;7.80;;
12222;SDS011;6174;49.058;8.524;2022-12-16T12:49:32;9.13;;;7.60;;
12222;SDS011;6174;49.058;8.524;2022-12-16T12:52:41;9.43;;;7.47;;
12222;SDS011;6174;49.058;8.524;2022-12-16T12:55:49;10.23;;;7.70;;
12222;SDS011;6174;49.058;8.524;2022-12-16T12:58:44;9.93;;;7.67;;
12222;SDS011;6174;49.058;8.524;2022-12-16T13:01:35;9.83;;;8.17;;
12222;SDS011;6174;49.058;8.524;2022-12-16T13:04:23;10.00;;;8.10;;
12222;SDS011;6174;49.058;8.524;2022-12-16T13:07:10;10.20;;;8.07;;
12222;SDS011;6174;49.058;8.524;2022-12-16T13:10:30;9.90;;;8.10;;
12222;SDS011;6174;49.058;8.524;2022-12-16T13:19:39;9.87;;;8.20;;
12222;SDS011;6174;49.058;8.524;2022-12-16T13:22:37;11.17;;;8.00;;
12222;SDS011;6174;49.058;8.524;2022-12-16T13:25:31;10.47;;;7.70;;
12222;SDS011;6174;49.058;8.524;2022-12-16T13:28:19;9.20;;;7.93;;
12222;SDS011;6174;49.058;8.524;2022-12-16T13:31:08;9.20;;;7.77;;
12222;SDS011;6174;49.058;8.524;2022-12-16T13:33:56;9.07;;;7.80;;
12222;SDS011;6174;49.058;8.524;2022-12-16T13:36:52;9.30;;;7.83;;
12222;SDS011;6174;49.058;8.524;2022-12-16T13:39:41;9.23;;;7.87;;
12222;SDS011;6174;49.058;8.524;2022-12-16T13:42:34;9.77;;;7.70;;
12222;SDS011;6174;49.058;8.524;2022-12-16T13:45:36;9.73;;;7.77;;
12222;SDS011;6174;49.058;8.524;2022-12-16T13:48:30;8.53;;;6.97;;
12222;SDS011;6174;49.058;8.524;2022-12-16T13:54:45;8.73;;;7.83;;
12222;SDS011;6174;49.058;8.524;2022-12-16T13:57:35;10.10;;;8.57;;
12222;SDS011;6174;49.058;8.524;2022-12-16T14:00:24;10.70;;;7.97;;
12222;SDS011;6174;49.058;8.524;2022-12-16T14:03:12;10.17;;;7.67;;
12222;SDS011;6174;49.058;8.524;2022-12-16T14:06:03;8.60;;;7.40;;
12222;SDS011;6174;49.058;8.524;2022-12-16T14:08:51;10.93;;;7.90;;
12222;SDS011;6174;49.058;8.524;2022-12-16T14:11:41;8.20;;;7.10;;
12222;SDS011;6174;49.058;8.524;2022-12-16T14:14:37;9.20;;;7.30;;
12222;SDS011;6174;49.058;8.524;2022-12-16T14:17:28;8.00;;;7.20;;
12222;SDS011;6174;49.058;8.524;2022-12-16T14:20:20;9.43;;;7.63;;
12222;SDS011;6174;49.058;8.524;2022-12-16T14:23:23;9.80;;;8.07;;
12222;SDS011;6174;49.058;8.524;2022-12-16T14:26:13;9.20;;;7.60;;
12222;SDS011;6174;49.058;8.524;2022-12-16T14:29:02;8.40;;;7.03;;
12222;SDS011;6174;49.058;8.524;2022-12-16T14:31:57;9.50;;;7.17;;
12222;SDS011;6174;49.058;8.524;2022-12-16T14:34:42;10.10;;;7.73;;
12222;SDS011;6174;49.058;8.524;2022-12-16T14:37:28;7.73;;;6.80;;
12222;SDS011;6174;49.058;8.524;2022-12-16T14:40:18;10.03;;;7.83;;
12222;SDS011;6174;49.058;8.524;2022-12-16T14:43:12;8.00;;;7.20;;
12222;SDS011;6174;49.058;8.524;2022-12-16T14:46:00;8.07;;;7.27;;
12222;SDS011;6174;49.058;8.524;2022-12-16T14:48:45;10.47;;;7.47;;
12222;SDS011;6174;49.058;8.524;2022-12-16T14:51:33;8.00;;;6.87;;
12222;SDS011;6174;49.058;8.524;2022-12-16T14:54:23;8.27;;;7.37;;
12222;SDS011;6174;49.058;8.524;2022-12-16T14:57:10;8.57;;;7.33;;
12222;SDS011;6174;49.058;8.524;2022-12-16T15:00:08;12.10;;;9.27;;
12222;SDS011;6174;49.058;8.524;2022-12-16T15:02:57;8.00;;;7.20;;
12222;SDS011;6174;49.058;8.524;2022-12-16T15:05:44;8.40;;;7.43;;
12222;SDS011;6174;49.058;8.524;2022-12-16T15:08:33;8.20;;;7.40;;
12222;SDS011;6174;49.058;8.524;2022-12-16T15:11:22;8.30;;;7.13;;
12222;SDS011;6174;49.058;8.524;2022-12-16T15:14:08;7.60;;;6.77;;
12222;SDS011;6174;49.058;8.524;2022-12-16T15:16:57;8.03;;;7.23;;
12222;SDS011;6174;49.058;8.524;2022-12-16T15:19:44;7.70;;;6.60;;
12222;SDS011;6174;49.058;8.524;2022-12-16T15:22:30;8.77;;;6.70;;
12222;SDS011;6174;49.058;8.524;2022-12-16T15:25:19;8.93;;;7.30;;
12222;SDS011;6174;49.058;8.524;2022-12-16T15:28:18;8.97;;;7.03;;
12222;SDS011;6174;49.058;8.524;2022-12-16T15:31:11;9.53;;;7.03;;
12222;SDS011;6174;49.058;8.524;2022-12-16T15:36:58;7.57;;;6.77;;
12222;SDS011;6174;49.058;8.524;2022-12-16T15:39:42;8.83;;;6.83;;
12222;SDS011;6174;49.058;8.524;2022-12-16T15:42:27;8.90;;;7.80;;
12222;SDS011;6174;49.058;8.524;2022-12-16T15:45:17;7.60;;;6.80;;
12222;SDS011;6174;49.058;8.524;2022-12-16T15:48:08;8.53;;;6.93;;
12222;SDS011;6174;49.058;8.524;2022-12-16T15:50:55;9.73;;;7.77;;
12222;SDS011;6174;49.058;8.524;2022-12-16T15:53:41;24.93;;;17.10;;
12222;SDS011;6174;49.058;8.524;2022-12-16T15:56:26;16.43;;;10.37;;
12222;SDS011;6174;49.058;8.524;2022-12-16T15:59:24;11.93;;;9.23;;
12222;SDS011;6174;49.058;8.524;2022-12-16T16:02:15;10.13;;;8.30;;
12222;SDS011;6174;49.058;8.524;2022-12-16T16:05:06;9.27;;;7.97;;
12222;SDS011;6174;49.058;8.524;2022-12-16T16:07:54;12.87;;;7.43;;
12222;SDS011;6174;49.058;8.524;2022-12-16T16:10:40;10.00;;;7.50;;
12222;SDS011;6174;49.058;8.524;2022-12-16T16:13:40;8.53;;;6.50;;
12222;SDS011;6174;49.058;8.524;2022-12-16T16:16:24;9.43;;;6.80;;
12222;SDS011;6174;49.058;8.524;2022-12-16T16:19:09;9.00;;;7.40;;
12222;SDS011;6174;49.058;8.524;2022-12-16T16:21:57;8.03;;;7.03;;
12222;SDS011;6174;49.058;8.524;2022-12-16T16:24:41;8.40;;;7.43;;
12222;SDS011;6174;49.058;8.524;2022-12-16T16:27:26;8.57;;;7.10;;
12222;SDS011;6174;49.058;8.524;2022-12-16T16:30:13;9.57;;;7.60;;
12222;SDS011;6174;49.058;8.524;2022-12-16T16:32:58;7.80;;;7.00;;
12222;SDS011;6174;49.058;8.524;2022-12-16T16:35:44;8.70;;;7.57;;
12222;SDS011;6174;49.058;8.524;2022-12-16T16:38:29;8.93;;;7.43;;
12222;SDS011;6174;49.058;8.524;2022-12-16T16:41:13;9.00;;;7.13;;
12222;SDS011;6174;49.058;8.524;2022-12-16T16:44:00;9.00;;;7.53;;
12222;SDS011;6174;49.058;8.524;2022-12-16T16:46:46;9.17;;;7.57;;
12222;SDS011;6174;49.058;8.524;2022-12-16T16:49:31;12.30;;;8.00;;
12222;SDS011;6174;49.058;8.524;2022-12-16T16:52:20;7.73;;;6.93;;
12222;SDS011;6174;49.058;8.524;2022-12-16T16:55:06;11.30;;;7.97;;
12222;SDS011;6174;49.058;8.524;2022-12-16T16:58:05;10.57;;;8.03;;
12222;SDS011;6174;49.058;8.524;2022-12-16T17:00:52;9.37;;;8.37;;
12222;SDS011;6174;49.058;8.524;2022-12-16T17:03:36;8.93;;;7.73;;
12222;SDS011;6174;49.058;8.524;2022-12-16T17:06:20;10.07;;;8.20;;
12222;SDS011;6174;49.058;8.524;2022-12-16T17:09:05;10.30;;;9.20;;
12222;SDS011;6174;49.058;8.524;2022-12-16T17:11:49;15.57;;;11.17;;
12222;SDS011;6174;49.058;8.524;2022-12-16T17:14:33;11.13;;;9.17;;
12222;SDS011;6174;49.058;8.524;2022-12-16T17:19:53;9.90;;;8.50;;
12222;SDS011;6174;49.058;8.524;2022-12-16T17:22:37;9.57;;;8.60;;
12222;SDS011;6174;49.058;8.524;2022-12-16T17:25:24;9.60;;;7.67;;
12222;SDS011;6174;49.058;8.524;2022-12-16T17:28:08;9.07;;;7.20;;
12222;SDS011;6174;49.058;8.524;2022-12-16T17:30:56;10.63;;;7.70;;
12222;SDS011;6174;49.058;8.524;2022-12-16T17:33:40;10.37;;;7.30;;
12222;SDS011;6174;49.058;8.524;2022-12-16T17:36:26;9.00;;;7.93;;
12222;SDS011;6174;49.058;8.524;2022-12-16T17:39:10;10.40;;;8.03;;
12222;SDS011;6174;49.058;8.524;2022-12-16T17:41:55;11.23;;;8.80;;
12222;SDS011;6174;49.058;8.524;2022-12-16T17:44:39;11.83;;;9.50;;
12222;SDS011;6174;49.058;8.524;2022-12-16T17:47:23;10.83;;;8.87;;
12222;SDS011;6174;49.058;8.524;2022-12-16T17:50:15;9.17;;;8.27;;
12222;SDS011;6174;49.058;8.524;2022-12-16T17:53:01;9.10;;;7.73;;
12222;SDS011;6174;49.058;8.524;2022-12-16T17:55:45;9.30;;;8.27;;
12222;SDS011;6174;49.058;8.524;2022-12-16T17:58:30;9.93;;;8.30;;
12222;SDS011;6174;49.058;8.524;2022-12-16T18:01:15;12.60;;;9.47;;
12222;SDS011;6174;49.058;8.524;2022-12-16T18:04:00;14.13;;;9.17;;
12222;SDS011;6174;49.058;8.524;2022-12-16T18:06:44;11.40;;;7.80;;
12222;SDS011;6174;49.058;8.524;2022-12-16T18:09:29;9.07;;;7.87;;
12222;SDS011;6174;49.058;8.524;2022-12-16T18:12:18;11.27;;;8.40;;
12222;SDS011;6174;49.058;8.524;2022-12-16T18:15:03;11.23;;;8.37;;
12222;SDS011;6174;49.058;8.524;2022-12-16T18:17:48;9.90;;;8.77;;
12222;SDS011;6174;49.058;8.524;2022-12-16T18:20:33;10.63;;;9.20;;
12222;SDS011;6174;49.058;8.524;2022-12-16T18:23:17;9.07;;;7.90;;
12222;SDS011;6174;49.058;8.524;2022-12-16T18:26:03;9.70;;;7.90;;
12222;SDS011;6174;49.058;8.524;2022-12-16T18:28:49;10.87;;;8.90;;
12222;SDS011;6174;49.058;8.524;2022-12-16T18:31:33;12.27;;;9.27;;
12222;SDS011;6174;49.058;8.524;2022-12-16T18:34:18;9.57;;;8.07;;
12222;SDS011;6174;49.058;8.524;2022-12-16T18:37:02;10.17;;;7.77;;
12222;SDS011;6174;49.058;8.524;2022-12-16T18:39:47;8.33;;;7.50;;
12222;SDS011;6174;49.058;8.524;2022-12-16T18:42:32;11.87;;;8.60;;
12222;SDS011;6174;49.058;8.524;2022-12-16T18:45:16;10.33;;;8.10;;
12222;SDS011;6174;49.058;8.524;2022-12-16T18:48:01;9.73;;;8.30;;
12222;SDS011;6174;49.058;8.524;2022-12-16T18:50:51;10.03;;;8.37;;
12222;SDS011;6174;49.058;8.524;2022-12-16T18:53:35;10.60;;;8.40;;
12222;SDS011;6174;49.058;8.524;2022-12-16T18:56:19;9.57;;;7.60;;
12222;SDS011;6174;49.058;8.524;2022-12-16T18:59:05;9.87;;;8.23;;
12222;SDS011;6174;49.058;8.524;2022-12-16T19:01:49;9.23;;;8.10;;
12222;SDS011;6174;49.058;8.524;2022-12-16T19:04:33;8.27;;;7.37;;
12222;SDS011;6174;49.058;8.524;2022-12-16T19:07:17;10.60;;;7.83;;
12222;SDS011;6174;49.058;8.524;2022-12-16T19:10:02;8.67;;;7.50;;
12222;SDS011;6174;49.058;8.524;2022-12-16T19:12:47;9.43;;;8.47;;
12222;SDS011;6174;49.058;8.524;2022-12-16T19:15:32;10.77;;;8.83;;
12222;SDS011;6174;49.058;8.524;2022-12-16T19:18:17;13.33;;;9.83;;
12222;SDS011;6174;49.058;8.524;2022-12-16T19:21:01;12.90;;;9.43;;
12222;SDS011;6174;49.058;8.524;2022-12-16T19:23:46;11.30;;;9.57;;
12222;SDS011;6174;49.058;8.524;2022-12-16T19:26:31;10.77;;;8.97;;
12222;SDS011;6174;49.058;8.524;2022-12-16T19:29:18;10.70;;;9.60;;
12222;SDS011;6174;49.058;8.524;2022-12-16T19:32:03;12.23;;;9.63;;
12222;SDS011;6174;49.058;8.524;2022-12-16T19:34:47;13.20;;;9.80;;
12222;SDS011;6174;49.058;8.524;2022-12-16T19:37:46;11.63;;;9.57;;
12222;SDS011;6174;49.058;8.524;2022-12-16T19:40:30;11.57;;;9.33;;
12222;SDS011;6174;49.058;8.524;2022-12-16T19:43:14;9.20;;;8.07;;
12222;SDS011;6174;49.058;8.524;2022-12-16T19:45:59;11.23;;;9.43;;
12222;SDS011;6174;49.058;8.524;2022-12-16T19:48:44;9.53;;;8.50;;
12222;SDS011;6174;49.058;8.524;2022-12-16T19:51:30;11.40;;;8.80;;
12222;SDS011;6174;49.058;8.524;2022-12-16T19:54:15;11.80;;;9.00;;
12222;SDS011;6174;49.058;8.524;2022-12-16T19:56:59;10.40;;;8.83;;
12222;SDS011;6174;49.058;8.524;2022-12-16T19:59:43;10.87;;;9.73;;
12222;SDS011;6174;49.058;8.524;2022-12-16T20:02:28;10.70;;;9.37;;
12222;SDS011;6174;49.058;8.524;2022-12-16T20:05:13;10.70;;;9.50;;
12222;SDS011;6174;49.058;8.524;2022-12-16T20:07:58;11.07;;;9.93;;
12222;SDS011;6174;49.058;8.524;2022-12-16T20:10:42;10.80;;;9.47;;
12222;SDS011;6174;49.058;8.524;2022-12-16T20:13:26;9.63;;;8.63;;
12222;SDS011;6174;49.058;8.524;2022-12-16T20:16:10;12.47;;;9.37;;
12222;SDS011;6174;49.058;8.524;2022-12-16T20:18:55;12.57;;;11.27;;
12222;SDS011;6174;49.058;8.524;2022-12-16T20:21:41;12.03;;;10.53;;
12222;SDS011;6174;49.058;8.524;2022-12-16T20:24:26;13.20;;;11.43;;
12222;SDS011;6174;49.058;8.524;2022-12-16T20:27:10;12.13;;;10.70;;
12222;SDS011;6174;49.058;8.524;2022-12-16T20:29:56;13.47;;;10.27;;
12222;SDS011;6174;49.058;8.524;2022-12-16T20:32:40;17.10;;;13.67;;
12222;SDS011;6174;49.058;8.524;2022-12-16T20:35:32;12.97;;;10.57;;
12222;SDS011;6174;49.058;8.524;2022-12-16T20:38:18;12.23;;;10.80;;
12222;SDS011;6174;49.058;8.524;2022-12-16T20:41:03;11.03;;;9.50;;
12222;SDS011;6174;49.058;8.524;2022-12-16T20:43:47;14.10;;;10.10;;
12222;SDS011;6174;49.058;8.524;2022-12-16T20:46:32;16.37;;;13.33;;
12222;SDS011;6174;49.058;8.524;2022-12-16T20:49:16;18.47;;;14.40;;
12222;SDS011;6174;49.058;8.524;2022-12-16T20:52:00;15.97;;;11.10;;
12222;SDS011;6174;49.058;8.524;2022-12-16T20:54:46;18.00;;;14.67;;
12222;SDS011;6174;49.058;8.524;2022-12-16T20:57:30;18.03;;;13.93;;
12222;SDS011;6174;49.058;8.524;2022-12-16T21:00:14;14.13;;;11.43;;
12222;SDS011;6174;49.058;8.524;2022-12-16T21:02:59;16.40;;;11.80;;
12222;SDS011;6174;49.058;8.524;2022-12-16T21:05:44;13.57;;;11.17;;
12222;SDS011;6174;49.058;8.524;2022-12-16T21:08:28;15.30;;;11.27;;
12222;SDS011;6174;49.058;8.524;2022-12-16T21:11:14;13.90;;;11.40;;
12222;SDS011;6174;49.058;8.524;2022-12-16T21:13:58;15.53;;;12.03;;
12222;SDS011;6174;49.058;8.524;2022-12-16T21:16:42;14.60;;;12.40;;
12222;SDS011;6174;49.058;8.524;2022-12-16T21:19:26;15.20;;;12.83;;
12222;SDS011;6174;49.058;8.524;2022-12-16T21:22:10;14.67;;;12.67;;
12222;SDS011;6174;49.058;8.524;2022-12-16T21:24:55;14.47;;;12.13;;
12222;SDS011;6174;49.058;8.524;2022-12-16T21:27:40;13.80;;;11.57;;
12222;SDS011;6174;49.058;8.524;2022-12-16T21:30:25;14.27;;;11.90;;
12222;SDS011;6174;49.058;8.524;2022-12-16T21:33:12;16.20;;;13.63;;
12222;SDS011;6174;49.058;8.524;2022-12-16T21:35:58;15.87;;;12.43;;
12222;SDS011;6174;49.058;8.524;2022-12-16T21:38:42;15.60;;;12.50;;
12222;SDS011;6174;49.058;8.524;2022-12-16T21:41:26;14.70;;;12.53;;
12222;SDS011;6174;49.058;8.524;2022-12-16T21:44:11;15.13;;;12.13;;
12222;SDS011;6174;49.058;8.524;2022-12-16T21:47:10;20.03;;;15.03;;
12222;SDS011;6174;49.058;8.524;2022-12-16T21:49:54;18.00;;;14.53;;
12222;SDS011;6174;49.058;8.524;2022-12-16T21:52:40;16.97;;;14.87;;
12222;SDS011;6174;49.058;8.524;2022-12-16T21:55:24;18.30;;;13.87;;
12222;SDS011;6174;49.058;8.524;2022-12-16T21:58:09;16.60;;;13.63;;
12222;SDS011;6174;49.058;8.524;2022-12-16T22:00:55;14.73;;;12.53;;
12222;SDS011;6174;49.058;8.524;2022-12-16T22:03:40;14.17;;;11.90;;
12222;SDS011;6174;49.058;8.524;2022-12-16T22:06:24;15.87;;;12.93;;